Time;durP1;ratioP1;P1;durP2;ratioP2;P2;SDS_P1;SDS_P2;PMS_P1;PMS_P2;Temp;Humidity;BMP_temperature;BMP_pressure;BME280_temperature;BME280_humidity;BME280_pressure;Samples;Min_cycle;Max_cycle;Signal;HPM_P1;HPM_P2
2021/11/28 00:00:48;;;;;;;20.53;5.50;;;3.40;99.90;;;;;;5033131;28;20402;-71
2021/11/28 00:03:16;;;;;;;10.37;7.37;;;3.40;99.90;;;;;;5032943;28;20438;-72
2021/11/28 00:05:43;;;;;;;8.87;4.30;;;3.40;99.90;;;;;;5032938;28;20426;-72
2021/11/28 00:13:08;;;;;;;7.70;5.37;;;3.30;99.90;;;;;;5033113;28;20176;-72
2021/11/28 00:15:35;;;;;;;11.53;6.63;;;3.30;99.90;;;;;;5032585;28;20434;-72
2021/11/28 00:18:01;;;;;;;7.20;4.67;;;3.30;99.90;;;;;;5032647;28;21011;-71
2021/11/28 00:20:27;;;;;;;7.20;4.57;;;3.30;99.90;;;;;;5032686;28;20449;-70
2021/11/28 00:22:52;;;;;;;5.60;5.03;;;3.20;99.90;;;;;;5032761;28;20403;-71
2021/11/28 00:25:20;;;;;;;11.40;7.13;;;3.20;99.90;;;;;;5032544;28;20172;-72
2021/11/28 00:27:49;;;;;;;9.97;6.07;;;3.20;99.90;;;;;;5032233;28;20587;-72
2021/11/28 00:30:21;;;;;;;4.90;4.53;;;3.20;99.90;;;;;;5032560;28;20469;-72
2021/11/28 00:32:47;;;;;;;7.70;5.77;;;3.20;99.90;;;;;;5032813;28;20422;-72
2021/11/28 00:35:13;;;;;;;9.30;6.30;;;3.20;99.90;;;;;;5032652;28;20411;-71
2021/11/28 00:37:39;;;;;;;9.20;5.80;;;3.20;99.90;;;;;;5032291;28;20964;-72
2021/11/28 00:40:05;;;;;;;10.77;4.40;;;3.20;99.90;;;;;;5032286;28;20410;-73
2021/11/28 00:42:31;;;;;;;9.37;6.87;;;3.10;99.90;;;;;;5032480;28;20190;-71
2021/11/28 00:44:57;;;;;;;10.17;5.50;;;3.10;99.90;;;;;;5032589;28;20901;-72
2021/11/28 00:47:23;;;;;;;8.43;7.50;;;3.10;99.90;;;;;;5031022;28;20575;-71
2021/11/28 00:50:16;;;;;;;11.43;5.70;;;3.10;99.90;;;;;;5032556;28;20176;-72
2021/11/28 00:52:43;;;;;;;16.47;7.07;;;3.10;99.90;;;;;;5032699;28;20176;-72
2021/11/28 00:55:10;;;;;;;5.17;4.43;;;3.00;99.90;;;;;;5030934;28;20441;-71
2021/11/28 00:57:36;;;;;;;11.97;8.20;;;3.10;99.90;;;;;;5030871;28;20457;-71
2021/11/28 01:00:08;;;;;;;6.50;5.63;;;3.00;99.90;;;;;;5032336;28;20405;-71
2021/11/28 01:02:35;;;;;;;9.13;5.10;;;3.10;99.90;;;;;;5032558;28;20421;-72
2021/11/28 01:05:02;;;;;;;10.70;5.57;;;3.10;99.90;;;;;;5032382;28;20754;-72
2021/11/28 01:07:30;;;;;;;8.30;5.00;;;3.00;99.90;;;;;;5032295;28;20449;-71
2021/11/28 01:09:56;;;;;;;10.40;5.03;;;3.10;99.90;;;;;;5032041;28;20489;-72
2021/11/28 01:12:22;;;;;;;6.23;5.73;;;3.10;99.90;;;;;;5032132;28;20414;-72
2021/11/28 01:14:49;;;;;;;4.37;3.73;;;3.10;99.90;;;;;;5032038;28;20847;-71
2021/11/28 01:17:15;;;;;;;4.80;3.80;;;3.10;99.90;;;;;;5031878;28;20517;-71
2021/11/28 01:19:41;;;;;;;5.20;4.77;;;3.10;99.90;;;;;;5032058;28;20500;-71
2021/11/28 01:22:09;;;;;;;8.10;5.23;;;3.10;99.90;;;;;;5030631;28;20194;-71
2021/11/28 01:24:36;;;;;;;5.70;4.00;;;3.10;99.90;;;;;;5031823;28;20794;-71
2021/11/28 01:27:06;;;;;;;14.63;4.07;;;3.10;99.90;;;;;;5030664;28;20828;-71
2021/11/28 01:29:32;;;;;;;9.73;4.30;;;3.00;99.90;;;;;;5031776;28;20441;-72
2021/11/28 01:32:02;;;;;;;5.90;3.07;;;3.10;99.90;;;;;;5030550;28;20450;-72
2021/11/28 01:34:28;;;;;;;4.23;3.47;;;3.00;99.90;;;;;;5032209;28;20592;-71
2021/11/28 01:36:55;;;;;;;4.90;4.43;;;3.00;99.90;;;;;;5031637;28;20769;-72
2021/11/28 01:39:21;;;;;;;5.17;4.70;;;3.10;99.90;;;;;;5033357;28;20461;-71
2021/11/28 01:41:47;;;;;;;4.30;3.83;;;3.00;99.90;;;;;;5036297;28;20410;-72
2021/11/28 01:44:14;;;;;;;3.37;3.07;;;3.00;99.90;;;;;;5036027;28;20410;-71
2021/11/28 01:46:39;;;;;;;9.17;6.03;;;3.10;99.90;;;;;;5035743;28;20425;-71
2021/11/28 01:49:07;;;;;;;6.97;3.93;;;3.10;99.90;;;;;;5035965;28;20406;-71
2021/11/28 01:51:34;;;;;;;7.50;4.40;;;3.20;99.90;;;;;;5035736;28;20220;-71
2021/11/28 01:54:00;;;;;;;8.20;5.37;;;3.20;99.90;;;;;;5035458;28;20783;-71
2021/11/28 01:56:28;;;;;;;4.97;4.50;;;3.30;99.90;;;;;;5035354;28;20465;-71
2021/11/28 01:58:54;;;;;;;4.50;4.10;;;3.30;99.90;;;;;;5035482;28;20508;-71
2021/11/28 02:01:21;;;;;;;7.47;3.73;;;3.30;99.90;;;;;;5035599;28;20422;-71
2021/11/28 02:03:48;;;;;;;16.33;5.30;;;3.30;99.90;;;;;;5035303;28;20402;-71
2021/11/28 02:06:17;;;;;;;4.77;3.57;;;3.40;99.90;;;;;;5033935;28;20430;-71
2021/11/28 02:08:43;;;;;;;7.80;4.53;;;3.40;99.90;;;;;;5035312;28;20418;-71
2021/11/28 02:11:10;;;;;;;7.10;5.30;;;3.40;99.90;;;;;;5035405;28;20433;-71
2021/11/28 02:13:36;;;;;;;9.80;5.80;;;3.40;99.90;;;;;;5035447;28;20406;-71
2021/11/28 02:16:02;;;;;;;4.30;3.53;;;3.40;99.90;;;;;;5034947;28;20761;-72
2021/11/28 02:18:28;;;;;;;5.70;4.03;;;3.40;99.90;;;;;;5034904;28;20604;-71
2021/11/28 02:20:56;;;;;;;6.37;3.43;;;3.40;99.90;;;;;;5035014;28;20493;-71
2021/11/28 02:23:23;;;;;;;4.07;3.50;;;3.40;99.90;;;;;;5033879;28;20179;-70
2021/11/28 02:25:50;;;;;;;3.53;3.30;;;3.50;99.90;;;;;;5034796;28;20426;-70
2021/11/28 02:28:17;;;;;;;7.27;4.70;;;3.40;99.90;;;;;;5034770;28;20402;-71
2021/11/28 02:30:42;;;;;;;5.00;4.23;;;3.40;99.90;;;;;;5034603;28;20410;-72
2021/11/28 02:33:08;;;;;;;4.30;3.63;;;3.40;99.90;;;;;;5034430;28;20402;-71
2021/11/28 02:35:34;;;;;;;8.83;4.73;;;3.40;99.90;;;;;;5034391;28;20426;-72
2021/11/28 02:38:01;;;;;;;3.23;2.80;;;3.50;99.90;;;;;;5034383;28;20196;-72
2021/11/28 02:40:27;;;;;;;7.90;4.97;;;3.40;99.90;;;;;;5034493;28;20956;-73
2021/11/28 02:42:55;;;;;;;4.73;4.37;;;3.40;99.90;;;;;;5034408;28;21003;-71
2021/11/28 02:45:23;;;;;;;8.23;3.80;;;3.40;99.90;;;;;;5034124;28;20901;-73
2021/11/28 02:47:50;;;;;;;5.93;3.63;;;3.40;99.90;;;;;;5034128;28;20751;-71
2021/11/28 02:50:18;;;;;;;4.37;3.57;;;3.50;99.90;;;;;;5033888;28;20399;-70
2021/11/28 02:52:53;;;;;;;4.20;3.80;;;3.40;99.90;;;;;;5034284;28;20406;-70
2021/11/28 02:55:30;;;;;;;3.20;2.90;;;3.50;99.90;;;;;;5034397;28;20410;-71
2021/11/28 02:57:57;;;;;;;6.57;4.10;;;3.40;99.90;;;;;;5033465;28;20984;-71
2021/11/28 03:00:25;;;;;;;4.90;4.50;;;3.50;99.90;;;;;;5034085;28;20399;-71
2021/11/28 03:02:50;;;;;;;5.73;4.47;;;3.50;99.90;;;;;;5033982;28;20398;-72
2021/11/28 03:05:16;;;;;;;4.63;4.20;;;3.50;99.90;;;;;;5034172;28;20403;-71
2021/11/28 03:07:42;;;;;;;4.77;3.77;;;3.40;99.90;;;;;;5034203;28;20172;-70
2021/11/28 03:10:29;;;;;;;6.40;5.80;;;3.40;99.90;;;;;;5034272;28;20505;-71
2021/11/28 03:12:55;;;;;;;4.60;4.20;;;3.40;99.90;;;;;;5034426;28;20406;-71
2021/11/28 03:15:22;;;;;;;5.33;4.43;;;3.40;99.90;;;;;;5034574;28;20403;-72
2021/11/28 03:17:48;;;;;;;4.07;3.73;;;3.40;99.90;;;;;;5034335;28;20462;-72
2021/11/28 03:20:17;;;;;;;4.00;3.17;;;3.40;99.90;;;;;;5034336;28;20406;-72
2021/11/28 03:22:52;;;;;;;8.10;4.27;;;3.40;99.90;;;;;;5034513;28;20542;-73
2021/11/28 03:25:20;;;;;;;6.47;4.50;;;3.40;99.90;;;;;;5034825;28;20404;-73
2021/11/28 03:27:46;;;;;;;4.17;3.40;;;3.40;99.90;;;;;;5034612;28;20409;-72
2021/11/28 03:30:14;;;;;;;5.90;4.97;;;3.40;99.90;;;;;;5034497;28;20750;-72
2021/11/28 03:32:40;;;;;;;4.67;3.80;;;3.40;99.90;;;;;;5034526;28;20403;-72
2021/11/28 03:35:07;;;;;;;4.90;4.40;;;3.40;99.90;;;;;;5034063;28;20417;-73
2021/11/28 03:37:33;;;;;;;6.03;3.77;;;3.40;99.90;;;;;;5033921;28;20450;-72
2021/11/28 03:40:00;;;;;;;9.10;4.30;;;3.40;99.90;;;;;;5033406;28;20420;-71
2021/11/28 03:42:26;;;;;;;5.80;4.27;;;3.40;99.90;;;;;;5033440;28;20497;-72
2021/11/28 03:44:52;;;;;;;3.23;2.93;;;3.40;99.90;;;;;;5033209;28;20446;-72
2021/11/28 03:47:18;;;;;;;5.50;4.03;;;3.40;99.90;;;;;;5033301;28;20469;-72
2021/11/28 03:49:44;;;;;;;9.03;4.67;;;3.40;99.90;;;;;;5033423;28;20180;-73
2021/11/28 03:52:10;;;;;;;6.60;3.80;;;3.30;99.90;;;;;;5033118;28;20776;-71
2021/11/28 03:54:36;;;;;;;4.57;4.17;;;3.30;99.90;;;;;;5032761;28;20830;-71
2021/11/28 03:57:04;;;;;;;5.07;4.20;;;3.30;99.90;;;;;;5032710;28;20187;-72
2021/11/28 03:59:30;;;;;;;4.30;3.20;;;3.30;99.90;;;;;;5032852;28;20486;-71
2021/11/28 04:01:56;;;;;;;7.57;4.67;;;3.30;99.90;;;;;;5032870;28;20445;-72
2021/11/28 04:04:22;;;;;;;8.60;4.90;;;3.30;99.90;;;;;;5032872;28;20251;-71
2021/11/28 04:06:48;;;;;;;3.63;3.33;;;3.40;99.90;;;;;;5032922;28;20509;-70
2021/11/28 04:09:14;;;;;;;5.53;3.87;;;3.40;99.90;;;;;;5032960;28;20164;-71
2021/11/28 04:11:39;;;;;;;5.50;4.47;;;3.30;99.90;;;;;;5032869;28;20182;-71
2021/11/28 04:14:05;;;;;;;6.07;4.63;;;3.30;99.90;;;;;;5033049;28;20411;-70
2021/11/28 04:16:31;;;;;;;10.13;3.33;;;3.30;99.90;;;;;;5032524;28;20190;-72
2021/11/28 04:18:59;;;;;;;3.50;3.20;;;3.30;99.90;;;;;;5032296;28;20218;-73
2021/11/28 04:21:25;;;;;;;4.77;3.40;;;3.30;99.90;;;;;;5032682;28;20410;-72
2021/11/28 04:23:51;;;;;;;6.83;4.77;;;3.20;99.90;;;;;;5032646;28;20407;-72
2021/11/28 04:26:17;;;;;;;4.70;4.27;;;3.10;99.90;;;;;;5032536;28;20424;-72
2021/11/28 04:28:42;;;;;;;4.40;3.50;;;3.10;99.90;;;;;;5032630;28;20228;-71
2021/11/28 04:31:08;;;;;;;3.87;3.47;;;3.00;99.90;;;;;;5032323;28;20612;-71
2021/11/28 04:33:34;;;;;;;4.83;3.87;;;2.90;99.90;;;;;;5032388;28;20254;-71
2021/11/28 04:36:00;;;;;;;4.37;3.10;;;2.80;99.90;;;;;;5032241;28;20191;-71
2021/11/28 04:38:25;;;;;;;6.13;4.50;;;2.70;99.90;;;;;;5032353;28;20694;-71
2021/11/28 04:40:51;;;;;;;4.37;3.60;;;2.70;99.90;;;;;;5032190;28;20213;-70
2021/11/28 04:43:17;;;;;;;4.00;3.70;;;2.60;99.90;;;;;;5032393;28;20167;-71
2021/11/28 04:45:42;;;;;;;3.80;3.23;;;2.60;99.90;;;;;;5032000;28;20227;-71
2021/11/28 04:48:08;;;;;;;4.50;3.00;;;2.50;99.90;;;;;;5032041;28;20164;-70
2021/11/28 04:50:34;;;;;;;4.97;3.50;;;2.40;99.90;;;;;;5032163;28;20210;-71
2021/11/28 04:53:00;;;;;;;7.23;4.80;;;2.40;99.90;;;;;;5032285;28;20529;-71
2021/11/28 04:55:25;;;;;;;4.63;4.00;;;2.30;99.90;;;;;;5032382;28;20175;-70
2021/11/28 04:57:51;;;;;;;3.80;3.40;;;2.20;99.90;;;;;;5032103;28;20194;-70
2021/11/28 05:00:20;;;;;;;7.30;4.10;;;2.20;99.90;;;;;;5032081;28;20176;-71
2021/11/28 05:02:47;;;;;;;5.40;3.30;;;2.20;99.90;;;;;;5031986;28;20221;-71
2021/11/28 05:05:12;;;;;;;2.90;2.70;;;2.10;99.90;;;;;;5031787;28;20407;-71
2021/11/28 05:07:38;;;;;;;4.13;3.43;;;2.00;99.90;;;;;;5031944;28;20418;-71
2021/11/28 05:10:04;;;;;;;8.67;4.33;;;2.00;99.90;;;;;;5032023;28;20172;-70
2021/11/28 05:12:30;;;;;;;7.43;5.57;;;1.90;99.90;;;;;;5031913;28;20175;-72
2021/11/28 05:14:56;;;;;;;5.17;3.60;;;2.00;99.90;;;;;;5031347;28;20484;-71
2021/11/28 05:17:21;;;;;;;3.07;2.03;;;1.90;99.90;;;;;;5031295;28;20739;-71
2021/11/28 05:19:48;;;;;;;5.10;3.53;;;1.90;99.90;;;;;;5031842;28;21040;-70
2021/11/28 05:22:14;;;;;;;5.70;2.33;;;1.90;99.90;;;;;;5031668;28;20209;-71
2021/11/28 05:24:39;;;;;;;3.27;2.97;;;1.80;99.90;;;;;;5031543;28;20402;-71
2021/11/28 05:27:05;;;;;;;4.50;4.13;;;1.80;99.90;;;;;;5031812;28;20422;-72
2021/11/28 05:29:31;;;;;;;4.00;3.60;;;1.80;99.90;;;;;;5031462;28;20710;-72
2021/11/28 05:31:56;;;;;;;2.60;2.40;;;1.80;99.90;;;;;;5031592;28;20173;-72
2021/11/28 05:34:22;;;;;;;6.17;3.40;;;1.70;99.90;;;;;;5031614;28;20565;-71
2021/11/28 05:36:48;;;;;;;5.00;4.27;;;1.70;99.90;;;;;;5031354;28;20194;-72
2021/11/28 05:39:13;;;;;;;2.67;2.47;;;1.60;99.90;;;;;;5031488;28;20190;-72
2021/11/28 05:41:39;;;;;;;5.97;5.40;;;1.60;99.90;;;;;;5030187;28;20175;-71
2021/11/28 05:44:05;;;;;;;2.37;2.03;;;1.60;99.90;;;;;;5031539;28;20533;-72
2021/11/28 05:46:31;;;;;;;3.73;3.43;;;1.50;99.90;;;;;;5031548;28;20472;-73
2021/11/28 05:48:56;;;;;;;6.30;2.60;;;1.50;99.90;;;;;;5031818;28;20544;-71
2021/11/28 05:51:22;;;;;;;7.47;3.67;;;1.50;99.90;;;;;;5031850;28;20674;-71
2021/11/28 05:53:48;;;;;;;4.53;3.33;;;1.40;99.90;;;;;;5031896;28;20167;-71
2021/11/28 05:56:16;;;;;;;3.93;3.63;;;1.30;99.90;;;;;;5031651;28;20195;-71
2021/11/28 05:58:42;;;;;;;5.23;3.90;;;1.30;99.90;;;;;;5031846;28;20200;-72
2021/11/28 06:01:08;;;;;;;5.43;3.53;;;1.30;99.90;;;;;;5031663;28;20415;-73
2021/11/28 06:03:33;;;;;;;3.63;2.53;;;1.30;99.90;;;;;;5031605;28;20442;-72
2021/11/28 06:05:59;;;;;;;3.43;3.13;;;1.30;99.90;;;;;;5031550;28;20265;-73
2021/11/28 06:08:25;;;;;;;10.20;4.33;;;1.30;99.90;;;;;;5031574;28;20179;-75
2021/11/28 06:10:50;;;;;;;5.00;2.30;;;1.20;99.90;;;;;;5031956;28;20172;-75
2021/11/28 06:13:16;;;;;;;3.03;2.70;;;1.30;99.90;;;;;;5031949;28;20167;-75
2021/11/28 06:15:42;;;;;;;6.97;3.17;;;1.30;99.90;;;;;;5031541;28;20198;-74
2021/11/28 06:18:09;;;;;;;2.40;2.20;;;1.30;99.90;;;;;;5031500;28;20199;-74
2021/11/28 06:20:35;;;;;;;3.87;3.57;;;1.20;99.90;;;;;;5031669;28;20569;-74
2021/11/28 06:23:00;;;;;;;9.90;3.60;;;1.20;99.90;;;;;;5030181;28;20415;-75
2021/11/28 06:25:26;;;;;;;7.10;3.80;;;1.20;99.90;;;;;;5031473;28;20690;-71
2021/11/28 06:27:52;;;;;;;2.97;2.77;;;1.10;99.90;;;;;;5035105;28;20487;-75
2021/11/28 06:30:17;;;;;;;1.90;1.57;;;1.00;99.90;;;;;;5034700;28;20236;-73
2021/11/28 06:32:43;;;;;;;3.50;3.20;;;1.10;99.90;;;;;;5033392;28;20299;-73
2021/11/28 06:35:09;;;;;;;5.00;4.60;;;1.00;99.90;;;;;;5034508;28;20171;-73
2021/11/28 06:37:35;;;;;;;4.00;3.10;;;1.00;99.90;;;;;;5034509;28;20553;-73
2021/11/28 06:40:01;;;;;;;8.43;3.67;;;1.10;99.90;;;;;;5034559;28;20186;-72
2021/11/28 06:42:26;;;;;;;3.60;2.97;;;1.00;99.90;;;;;;5034543;28;20167;-72
2021/11/28 06:44:52;;;;;;;4.53;4.23;;;1.00;99.90;;;;;;5034421;28;20792;-73
2021/11/28 06:47:17;;;;;;;3.20;2.90;;;1.10;99.90;;;;;;5034617;28;20188;-75
2021/11/28 06:49:43;;;;;;;5.13;3.30;;;1.00;99.90;;;;;;5034962;28;20254;-74
2021/11/28 06:52:10;;;;;;;2.67;1.77;;;0.90;99.90;;;;;;5034463;28;20590;-73
2021/11/28 06:54:35;;;;;;;5.27;2.93;;;0.90;99.90;;;;;;5030911;28;20537;-73
2021/11/28 06:57:01;;;;;;;3.43;2.77;;;0.90;99.90;;;;;;5030253;28;20902;-72
2021/11/28 06:59:27;;;;;;;2.20;2.00;;;0.90;99.90;;;;;;5032221;28;20199;-74
2021/11/28 07:01:52;;;;;;;5.03;3.93;;;0.90;99.90;;;;;;5033964;28;20163;-73
2021/11/28 07:04:18;;;;;;;3.67;2.33;;;0.90;99.90;;;;;;5033995;28;20171;-73
2021/11/28 07:06:44;;;;;;;4.50;3.23;;;0.80;99.90;;;;;;5033966;28;20179;-73
2021/11/28 07:09:10;;;;;;;5.80;3.40;;;0.80;99.90;;;;;;5034077;28;20411;-73
2021/11/28 07:11:35;;;;;;;5.07;4.63;;;0.90;99.90;;;;;;5033754;28;20178;-73
2021/11/28 07:14:01;;;;;;;9.90;3.30;;;0.90;99.90;;;;;;5033997;28;20199;-75
2021/11/28 07:16:27;;;;;;;6.50;4.30;;;0.90;99.90;;;;;;5033416;28;20345;-75
2021/11/28 07:18:53;;;;;;;3.73;3.30;;;0.90;99.90;;;;;;5033473;28;20461;-74
2021/11/28 07:21:18;;;;;;;5.23;4.23;;;0.90;99.90;;;;;;5033683;28;20164;-74
2021/11/28 07:23:46;;;;;;;5.27;4.77;;;0.80;99.90;;;;;;5033691;28;20171;-74
2021/11/28 07:26:13;;;;;;;4.03;3.70;;;0.90;99.90;;;;;;5033080;28;20279;-74
2021/11/28 07:28:39;;;;;;;4.50;2.53;;;0.90;99.90;;;;;;5033546;28;20415;-77
2021/11/28 07:31:06;;;;;;;2.57;2.37;;;0.80;99.90;;;;;;5033885;28;20487;-75
2021/11/28 07:33:35;;;;;;;4.43;3.53;;;0.90;99.90;;;;;;5033374;28;20406;-75
2021/11/28 07:36:01;;;;;;;2.70;2.50;;;0.90;99.90;;;;;;5033224;28;20967;-74
2021/11/28 07:38:26;;;;;;;4.83;3.40;;;0.90;99.90;;;;;;5033139;28;20458;-73
2021/11/28 07:40:52;;;;;;;5.17;3.83;;;1.00;99.90;;;;;;5033261;28;20486;-71
2021/11/28 07:43:18;;;;;;;3.10;2.90;;;1.20;99.90;;;;;;5032178;28;20559;-74
2021/11/28 07:45:43;;;;;;;6.53;5.00;;;1.40;99.90;;;;;;5033157;28;20190;-74
2021/11/28 07:48:10;;;;;;;6.83;3.37;;;2.00;99.90;;;;;;5033240;28;20539;-74
2021/11/28 07:50:36;;;;;;;4.93;4.10;;;2.80;99.90;;;;;;5033224;28;20507;-74
2021/11/28 07:53:02;;;;;;;3.30;3.10;;;2.40;99.90;;;;;;5033408;28;20409;-74
2021/11/28 07:55:27;;;;;;;9.33;4.43;;;2.40;99.90;;;;;;5035730;28;20499;-72
2021/11/28 07:57:53;;;;;;;9.63;3.63;;;2.40;99.90;;;;;;5033366;28;20462;-73
2021/11/28 08:00:19;;;;;;;4.20;3.27;;;2.50;99.90;;;;;;5033319;28;20701;-73
2021/11/28 08:02:44;;;;;;;4.57;3.80;;;2.70;99.90;;;;;;5033519;28;20182;-74
2021/11/28 08:05:10;;;;;;;5.57;3.53;;;2.80;99.90;;;;;;5025207;28;20231;-73
2021/11/28 08:07:36;;;;;;;8.53;3.47;;;2.60;99.90;;;;;;5013323;28;20263;-73
2021/11/28 08:10:02;;;;;;;5.67;5.03;;;2.80;99.90;;;;;;5013426;28;20161;-74
2021/11/28 08:12:28;;;;;;;4.97;4.47;;;3.00;99.90;;;;;;5013083;28;20196;-73
2021/11/28 08:14:54;;;;;;;5.57;3.00;;;2.90;99.90;;;;;;5012923;28;20453;-73
2021/11/28 08:17:19;;;;;;;4.87;4.43;;;2.80;99.90;;;;;;5012763;28;20239;-74
2021/11/28 08:19:45;;;;;;;6.73;5.40;;;2.90;99.90;;;;;;5013353;28;20172;-74
2021/11/28 08:22:11;;;;;;;11.90;6.50;;;2.70;99.90;;;;;;5013225;28;20164;-74
2021/11/28 08:24:37;;;;;;;5.90;3.40;;;2.80;99.90;;;;;;5013853;28;20172;-74
2021/11/28 08:27:04;;;;;;;10.17;6.03;;;3.00;99.90;;;;;;5016068;28;20659;-73
2021/11/28 08:29:30;;;;;;;8.97;4.30;;;3.50;99.90;;;;;;5029946;28;21108;-73
2021/11/28 08:31:56;;;;;;;9.20;5.60;;;3.60;99.90;;;;;;5039006;28;20414;-73
2021/11/28 08:34:22;;;;;;;5.17;4.47;;;3.60;99.90;;;;;;5039652;28;20402;-74
2021/11/28 08:36:48;;;;;;;9.20;6.47;;;3.30;99.90;;;;;;5038189;28;20628;-73
2021/11/28 08:39:14;;;;;;;7.70;5.93;;;3.20;99.90;;;;;;5036048;28;20449;-74
2021/11/28 08:41:41;;;;;;;7.40;5.00;;;3.50;99.90;;;;;;5041705;28;20413;-74
2021/11/28 08:44:07;;;;;;;6.03;3.40;;;3.90;99.90;;;;;;5042506;28;20494;-73
2021/11/28 08:46:33;;;;;;;4.47;4.07;;;4.00;99.90;;;;;;5041392;28;20418;-74
2021/11/28 08:49:00;;;;;;;6.63;3.30;;;3.90;99.90;;;;;;5040111;28;20407;-73
2021/11/28 08:51:26;;;;;;;8.37;4.60;;;4.10;99.90;;;;;;5041940;28;20452;-74
2021/11/28 08:53:54;;;;;;;5.63;5.13;;;4.00;99.90;;;;;;5039331;28;21044;-74
2021/11/28 08:56:20;;;;;;;6.47;4.30;;;4.00;99.90;;;;;;5047128;28;20461;-71
2021/11/28 08:58:45;;;;;;;8.90;4.50;;;4.00;99.90;;;;;;5040874;28;20783;-73
2021/11/28 09:01:11;;;;;;;6.50;3.77;;;3.50;99.90;;;;;;5040558;28;20407;-73
2021/11/28 09:03:37;;;;;;;5.17;3.70;;;3.60;99.90;;;;;;5022243;28;20606;-73
2021/11/28 09:06:02;;;;;;;5.20;4.70;;;3.60;99.90;;;;;;5017596;28;20211;-73
2021/11/28 09:08:28;;;;;;;12.00;5.87;;;3.70;99.90;;;;;;5016958;28;20171;-73
2021/11/28 09:10:54;;;;;;;6.40;4.50;;;3.40;99.90;;;;;;5015076;28;20175;-72
2021/11/28 09:13:20;;;;;;;5.47;3.83;;;3.30;99.90;;;;;;5014833;28;20168;-72
2021/11/28 09:15:46;;;;;;;4.40;3.03;;;3.10;99.90;;;;;;5015169;28;20263;-72
2021/11/28 09:18:16;;;;;;;6.03;2.90;;;3.20;99.90;;;;;;5016258;28;20455;-76
2021/11/28 09:20:45;;;;;;;5.50;3.63;;;3.20;99.90;;;;;;5019536;28;20501;-74
2021/11/28 09:25:38;;;;;;;6.50;3.90;;;3.40;99.90;;;;;;5012680;28;20423;-72
2021/11/28 09:28:06;;;;;;;2.53;2.03;;;3.50;99.90;;;;;;5016732;28;20560;-72
2021/11/28 09:30:33;;;;;;;2.80;2.33;;;3.60;99.90;;;;;;5032684;28;20407;-71
2021/11/28 09:33:01;;;;;;;13.57;4.10;;;3.40;99.90;;;;;;5032870;28;20449;-72
2021/11/28 09:35:27;;;;;;;5.30;4.83;;;3.30;99.90;;;;;;5037188;28;20441;-72
2021/11/28 09:37:54;;;;;;;4.97;3.67;;;3.20;99.90;;;;;;5039906;28;20473;-72
2021/11/28 09:40:21;;;;;;;7.30;4.00;;;3.30;99.90;;;;;;5039865;28;20414;-73
2021/11/28 09:42:58;;;;;;;4.73;3.90;;;3.60;99.90;;;;;;5033210;28;20827;-75
2021/11/28 09:45:26;;;;;;;7.60;3.90;;;3.90;99.90;;;;;;5040459;28;20403;-73
2021/11/28 09:47:54;;;;;;;5.80;3.17;;;4.00;99.90;;;;;;5040063;28;20835;-72
2021/11/28 09:50:20;;;;;;;2.43;2.23;;;4.00;99.90;;;;;;5037676;28;20924;-73
2021/11/28 09:52:49;;;;;;;8.27;3.80;;;4.00;99.90;;;;;;5039880;28;20424;-72
2021/11/28 09:55:15;;;;;;;4.47;2.77;;;3.90;99.90;;;;;;5036113;28;20444;-73
2021/11/28 09:57:44;;;;;;;4.03;3.00;;;4.00;99.90;;;;;;5035422;28;20410;-72
2021/11/28 10:00:12;;;;;;;7.47;4.60;;;4.00;99.90;;;;;;5037350;28;20406;-73
2021/11/28 10:02:38;;;;;;;5.23;2.13;;;4.00;99.90;;;;;;5037015;28;20414;-73
2021/11/28 10:05:08;;;;;;;7.10;4.00;;;3.90;99.90;;;;;;5039329;28;20414;-72
2021/11/28 10:07:33;;;;;;;4.30;3.10;;;3.80;99.90;;;;;;5039318;28;20460;-73
2021/11/28 10:09:59;;;;;;;7.27;3.03;;;3.80;99.90;;;;;;5038883;28;20403;-73
2021/11/28 10:12:28;;;;;;;4.13;3.20;;;3.70;99.90;;;;;;5039416;28;20410;-74
2021/11/28 10:14:55;;;;;;;4.20;3.53;;;3.60;99.90;;;;;;5035849;28;20495;-74
2021/11/28 10:17:25;;;;;;;2.87;2.27;;;3.60;99.90;;;;;;5035655;28;20795;-74
2021/11/28 10:19:51;;;;;;;4.67;3.93;;;3.50;99.90;;;;;;5035511;28;20402;-74
2021/11/28 10:22:17;;;;;;;5.27;4.20;;;3.60;99.90;;;;;;5035753;28;20398;-74
2021/11/28 10:24:50;;;;;;;6.83;3.97;;;3.70;99.90;;;;;;5035530;28;20405;-72
2021/11/28 10:27:15;;;;;;;3.00;2.70;;;3.60;99.90;;;;;;5035398;28;20215;-72
2021/11/28 10:29:42;;;;;;;3.70;3.10;;;3.70;99.90;;;;;;5035241;28;20398;-72
2021/11/28 10:32:11;;;;;;;6.07;3.37;;;3.80;99.90;;;;;;5035959;28;20176;-72
2021/11/28 10:34:47;;;;;;;5.43;4.13;;;3.90;99.90;;;;;;5035631;28;20402;-73
2021/11/28 10:37:18;;;;;;;4.67;3.70;;;3.90;99.90;;;;;;5035498;28;20757;-72
2021/11/28 10:39:58;;;;;;;5.50;3.53;;;3.80;99.90;;;;;;5035391;28;20868;-72
2021/11/28 10:42:35;;;;;;;3.67;3.00;;;3.80;99.90;;;;;;5026767;28;20406;-71
2021/11/28 10:45:01;;;;;;;2.53;2.33;;;3.90;99.90;;;;;;5035443;28;20414;-72
2021/11/28 10:47:38;;;;;;;5.70;3.83;;;3.90;99.90;;;;;;5033729;28;20448;-73
2021/11/28 10:50:09;;;;;;;4.50;4.10;;;3.80;99.90;;;;;;5035325;28;20163;-73
2021/11/28 10:52:35;;;;;;;6.20;3.57;;;3.80;99.90;;;;;;5035285;28;20489;-73
2021/11/28 10:55:13;;;;;;;4.77;3.70;;;3.90;99.90;;;;;;5035076;28;20425;-73
2021/11/28 10:57:39;;;;;;;5.63;3.30;;;3.90;99.90;;;;;;5018268;28;20402;-73
2021/11/28 11:00:07;;;;;;;4.00;3.50;;;3.90;99.90;;;;;;5033807;28;20406;-73
2021/11/28 11:02:38;;;;;;;6.70;3.90;;;4.00;99.90;;;;;;5035030;28;20446;-72
2021/11/28 11:05:09;;;;;;;4.53;2.73;;;4.00;99.90;;;;;;5034915;28;20469;-73
2021/11/28 11:07:48;;;;;;;6.47;3.40;;;4.00;99.90;;;;;;5035697;28;20777;-73
2021/11/28 11:10:20;;;;;;;3.20;2.87;;;4.00;99.90;;;;;;5035614;28;20406;-72
2021/11/28 11:12:47;;;;;;;4.47;2.33;;;4.00;99.90;;;;;;5034493;28;20461;-72
2021/11/28 11:15:16;;;;;;;6.63;2.90;;;3.90;99.90;;;;;;5035157;28;20401;-73
2021/11/28 11:17:56;;;;;;;4.63;3.37;;;4.00;99.90;;;;;;5033398;28;20440;-73
2021/11/28 11:20:27;;;;;;;12.23;3.97;;;4.00;99.90;;;;;;5034876;28;20415;-73
2021/11/28 11:22:53;;;;;;;4.80;3.40;;;4.10;99.90;;;;;;5035559;28;20402;-73
2021/11/28 11:25:20;;;;;;;6.20;2.80;;;4.00;99.90;;;;;;5036427;28;20452;-73
2021/11/28 11:27:48;;;;;;;6.47;3.97;;;4.10;99.90;;;;;;5019753;28;20423;-73
2021/11/28 11:30:18;;;;;;;5.83;3.63;;;4.10;99.90;;;;;;5036868;28;20431;-74
2021/11/28 11:32:43;;;;;;;5.43;3.50;;;4.10;99.90;;;;;;5036199;28;20564;-73
2021/11/28 11:35:15;;;;;;;4.03;2.60;;;4.10;99.90;;;;;;5034675;28;20439;-73
2021/11/28 11:37:41;;;;;;;3.43;3.03;;;4.20;99.90;;;;;;5034359;28;20630;-72
2021/11/28 11:40:13;;;;;;;4.37;3.10;;;4.10;99.90;;;;;;5034303;28;20414;-72
2021/11/28 11:42:43;;;;;;;6.13;3.50;;;4.10;99.90;;;;;;5022792;28;20168;-71
2021/11/28 11:45:13;;;;;;;4.67;2.10;;;4.10;99.90;;;;;;5014486;28;20407;-73
2021/11/28 11:47:39;;;;;;;4.67;2.80;;;4.00;99.90;;;;;;5014835;28;20771;-73
2021/11/28 11:50:10;;;;;;;9.63;2.47;;;4.10;99.90;;;;;;5014337;28;20407;-73
2021/11/28 11:52:35;;;;;;;5.47;3.77;;;4.20;99.90;;;;;;5014044;28;20403;-72
2021/11/28 11:55:06;;;;;;;3.50;3.10;;;4.20;99.90;;;;;;5022748;28;20405;-73
2021/11/28 11:57:41;;;;;;;5.97;3.80;;;4.20;99.90;;;;;;5034242;28;20188;-73
2021/11/28 12:00:20;;;;;;;3.17;2.10;;;4.30;99.90;;;;;;5033659;28;20409;-73
2021/11/28 12:02:50;;;;;;;7.70;3.30;;;4.40;99.90;;;;;;5032267;28;20414;-74
2021/11/28 12:05:24;;;;;;;2.63;2.43;;;4.40;99.90;;;;;;5033432;28;20410;-72
2021/11/28 12:07:54;;;;;;;4.07;2.67;;;4.50;99.90;;;;;;5033559;28;20935;-71
2021/11/28 12:10:29;;;;;;;3.90;3.40;;;4.60;99.90;;;;;;5033419;28;20553;-73
2021/11/28 12:12:57;;;;;;;4.00;2.90;;;4.60;99.90;;;;;;5033963;28;20398;-73
2021/11/28 12:15:27;;;;;;;6.27;2.70;;;4.60;99.90;;;;;;5033273;28;20435;-72
2021/11/28 12:17:55;;;;;;;4.07;3.33;;;4.60;99.90;;;;;;5037023;28;20458;-73
2021/11/28 12:20:42;;;;;;;7.80;3.43;;;4.60;99.90;;;;;;5037849;28;20387;-73
2021/11/28 12:23:09;;;;;;;2.47;2.27;;;4.60;99.90;;;;;;5037246;28;20991;-71
2021/11/28 12:25:47;;;;;;;2.30;1.93;;;4.60;99.90;;;;;;5035647;28;20423;-71
2021/11/28 12:28:32;;;;;;;3.03;2.70;;;4.60;99.90;;;;;;5035775;28;20416;-73
2021/11/28 12:31:04;;;;;;;19.57;10.87;;;4.70;99.90;;;;;;5036128;28;20497;-73
2021/11/28 12:34:11;;;;;;;127.40;47.87;;;4.60;99.90;;;;;;5034595;28;20410;-75
2021/11/28 12:36:41;;;;;;;88.77;31.20;;;4.60;99.90;;;;;;5026611;28;20492;-78
2021/11/28 12:39:08;;;;;;;40.93;15.67;;;4.60;99.90;;;;;;5035807;28;20492;-76
2021/11/28 12:44:13;;;;;;;10.10;4.53;;;4.60;99.90;;;;;;5014917;28;20781;-75
2021/11/28 12:46:47;;;;;;;4.43;3.03;;;4.70;99.90;;;;;;5013305;28;20428;-73
2021/11/28 12:49:27;;;;;;;7.10;3.30;;;4.70;99.90;;;;;;5014294;28;20495;-74
2021/11/28 12:52:16;;;;;;;3.77;2.73;;;4.70;99.90;;;;;;5015908;28;20434;-73
2021/11/28 12:55:15;;;;;;;7.00;3.27;;;4.70;99.90;;;;;;5018603;28;20422;-73
2021/11/28 12:57:42;;;;;;;2.47;2.27;;;4.70;99.90;;;;;;5009754;28;20415;-74
2021/11/28 13:00:21;;;;;;;3.53;2.60;;;4.70;99.90;;;;;;5012589;28;20406;-75
2021/11/28 13:03:21;;;;;;;4.27;2.73;;;4.70;99.90;;;;;;5015843;28;20411;-73
2021/11/28 13:05:47;;;;;;;6.13;3.17;;;4.80;99.90;;;;;;4983688;28;20427;-73
2021/11/28 13:08:12;;;;;;;7.50;2.13;;;4.70;99.90;;;;;;5016837;28;20799;-73